Time;durP1;ratioP1;P1;durP2;ratioP2;P2;SDS_P1;SDS_P2;PMS_P1;PMS_P2;Temp;Humidity;BMP_temperature;BMP_pressure;BME280_temperature;BME280_humidity;BME280_pressure;Samples;Min_cycle;Max_cycle;Signal;HPM_P1;HPM_P2
2022/03/11 12:41:58;;;;;;;21.88;13.88;;;;;;;;;;6210026;22;21116;31
2022/03/11 12:44:23;;;;;;;18.40;11.75;;;;;;;;;;6217950;23;20017;-87
2022/03/11 17:23:50;;;;;;;23.02;14.68;;;;;;;;;;6237334;22;20024;-96
2022/03/11 17:26:16;;;;;;;23.35;15.88;;;;;;;;;;6218796;23;20031;-95
2022/03/11 18:03:15;;;;;;;24.70;14.30;;;;;;;;;;6199028;22;21215;-96
2022/03/11 18:41:55;;;;;;;26.55;17.42;;;;;;;;;;6237785;22;20064;-96
2022/03/11 18:44:22;;;;;;;23.10;14.85;;;;;;;;;;6216819;23;20323;-93
2022/03/11 18:46:49;;;;;;;21.05;13.95;;;;;;;;;;6191359;23;20024;-93
2022/03/11 18:49:15;;;;;;;24.80;16.88;;;;;;;;;;6191441;23;20031;-95
2022/03/11 18:51:45;;;;;;;19.52;14.07;;;;;;;;;;6208609;23;20008;-96
2022/03/11 18:54:11;;;;;;;22.45;14.10;;;;;;;;;;6216441;23;20446;-92
2022/03/11 18:56:37;;;;;;;21.95;14.02;;;;;;;;;;6216573;23;20087;-93
2022/03/11 18:59:04;;;;;;;22.95;14.63;;;;;;;;;;6216238;23;20329;-94
2022/03/11 19:01:30;;;;;;;25.55;15.02;;;;;;;;;;6216016;23;20432;-95
2022/03/11 19:03:55;;;;;;;22.38;15.45;;;;;;;;;;6216356;23;20004;-95
2022/03/11 19:06:21;;;;;;;24.25;15.50;;;;;;;;;;6216578;23;20007;-92
2022/03/11 19:08:47;;;;;;;23.13;14.27;;;;;;;;;;6216536;23;20008;-92
2022/03/11 19:11:19;;;;;;;24.15;14.20;;;;;;;;;;6216052;23;20007;-90
2022/03/11 19:13:46;;;;;;;24.20;16.00;;;;;;;;;;6216487;23;19997;-93
2022/03/11 19:16:13;;;;;;;26.30;16.02;;;;;;;;;;6217878;23;20420;-92
2022/03/11 19:18:40;;;;;;;25.75;14.77;;;;;;;;;;6221168;23;19997;-91
2022/03/11 19:21:07;;;;;;;23.38;15.25;;;;;;;;;;6219377;23;20039;-94
2022/03/11 19:23:34;;;;;;;24.20;15.20;;;;;;;;;;6216737;23;20005;-94
2022/03/11 19:26:00;;;;;;;26.45;16.02;;;;;;;;;;6217460;23;20019;-92
2022/03/11 19:28:27;;;;;;;24.08;14.70;;;;;;;;;;6217101;23;20009;-96
2022/03/11 19:30:53;;;;;;;23.65;15.70;;;;;;;;;;6216171;23;20012;-94
2022/03/11 19:33:20;;;;;;;25.08;16.00;;;;;;;;;;6191696;23;20095;-94
2022/03/11 19:35:55;;;;;;;24.38;16.00;;;;;;;;;;6216854;23;20091;-95
2022/03/11 19:38:27;;;;;;;24.27;15.20;;;;;;;;;;6216403;23;20012;-92
2022/03/11 19:41:00;;;;;;;32.53;17.15;;;;;;;;;;6215819;23;20004;-92
2022/03/11 19:43:27;;;;;;;24.85;16.33;;;;;;;;;;6245008;23;20079;-93
2022/03/11 19:45:54;;;;;;;25.88;15.50;;;;;;;;;;6248814;23;20091;-90
2022/03/11 19:48:20;;;;;;;47.72;28.40;;;;;;;;;;6248803;23;20015;-91
2022/03/11 19:50:47;;;;;;;25.52;15.65;;;;;;;;;;6248696;23;20419;-89
2022/03/11 19:53:13;;;;;;;23.50;15.35;;;;;;;;;;6248713;23;20004;-94
2022/03/11 19:55:42;;;;;;;33.10;21.73;;;;;;;;;;6249031;23;20087;-92
2022/03/11 19:58:08;;;;;;;27.85;18.55;;;;;;;;;;6248733;23;20008;-94
2022/03/11 20:00:34;;;;;;;31.48;20.95;;;;;;;;;;6248228;23;20424;-92
2022/03/11 20:03:00;;;;;;;28.73;16.00;;;;;;;;;;6246933;23;20000;-92
2022/03/11 20:05:26;;;;;;;31.35;19.63;;;;;;;;;;6247606;23;20004;-92
2022/03/11 20:08:19;;;;;;;28.70;17.67;;;;;;;;;;6251309;23;20012;-96
2022/03/11 20:11:14;;;;;;;28.75;17.70;;;;;;;;;;6264554;22;20016;-95
2022/03/11 20:13:41;;;;;;;29.13;16.42;;;;;;;;;;6216026;23;20024;-95
2022/03/11 20:16:08;;;;;;;24.55;15.70;;;;;;;;;;6223191;23;20022;-94
2022/03/11 20:18:35;;;;;;;26.38;17.45;;;;;;;;;;6222134;23;20024;-94
2022/03/11 20:21:07;;;;;;;28.95;19.00;;;;;;;;;;6196655;23;20336;-95
2022/03/11 20:23:33;;;;;;;28.70;18.20;;;;;;;;;;6196320;23;20008;-93
2022/03/11 20:26:02;;;;;;;29.65;18.98;;;;;;;;;;6225251;23;20032;-95
2022/03/11 20:28:29;;;;;;;26.77;17.08;;;;;;;;;;6196827;23;20000;-93
2022/03/11 20:30:55;;;;;;;23.77;16.33;;;;;;;;;;6194825;23;20340;-91
2022/03/11 20:33:21;;;;;;;25.38;17.67;;;;;;;;;;6192609;23;20009;-91
2022/03/11 20:35:48;;;;;;;25.77;15.98;;;;;;;;;;6219415;23;20480;-94
2022/03/11 20:38:14;;;;;;;24.08;16.60;;;;;;;;;;6192583;23;20004;-90
2022/03/11 20:40:40;;;;;;;26.75;17.27;;;;;;;;;;6192746;23;20012;-91
2022/03/11 20:43:06;;;;;;;27.95;16.02;;;;;;;;;;6191767;23;20008;-90
2022/03/11 20:45:32;;;;;;;29.50;19.20;;;;;;;;;;6192566;23;20007;-91
2022/03/11 20:47:57;;;;;;;30.77;17.90;;;;;;;;;;6193393;23;20004;-93
2022/03/11 20:50:28;;;;;;;24.02;16.77;;;;;;;;;;6194318;23;20412;-90
2022/03/11 20:52:59;;;;;;;22.70;16.10;;;;;;;;;;6246408;22;20107;-96
2022/03/11 20:55:25;;;;;;;24.70;16.25;;;;;;;;;;6205185;23;20103;-94
2022/03/11 20:57:51;;;;;;;25.23;16.33;;;;;;;;;;6229151;23;20019;-94
2022/03/11 21:00:17;;;;;;;28.20;17.17;;;;;;;;;;6228435;23;20004;-96
2022/03/11 21:02:46;;;;;;;26.40;16.60;;;;;;;;;;6229182;23;20007;-96
2022/03/11 21:05:12;;;;;;;28.25;17.10;;;;;;;;;;6229457;23;20082;-95
2022/03/11 21:07:45;;;;;;;26.98;16.67;;;;;;;;;;6228346;23;20000;-95
2022/03/11 21:10:12;;;;;;;24.85;16.17;;;;;;;;;;6229413;23;19988;-95
2022/03/11 21:12:39;;;;;;;28.73;16.77;;;;;;;;;;6223454;23;20027;-91
2022/03/11 21:15:06;;;;;;;24.50;15.52;;;;;;;;;;6248966;23;20000;-92
2022/03/11 21:17:37;;;;;;;26.48;16.42;;;;;;;;;;6197389;23;20015;-91
2022/03/11 21:20:09;;;;;;;28.25;16.60;;;;;;;;;;6222038;23;20011;-92
2022/03/11 21:22:36;;;;;;;25.50;15.52;;;;;;;;;;6221980;23;20008;-91
2022/03/11 21:25:03;;;;;;;24.48;14.88;;;;;;;;;;6222597;23;20074;-92
2022/03/11 21:27:28;;;;;;;25.35;16.35;;;;;;;;;;6221783;23;20004;-94
2022/03/11 21:29:55;;;;;;;22.02;13.98;;;;;;;;;;6222291;23;20431;-93
2022/03/11 21:32:20;;;;;;;23.75;15.10;;;;;;;;;;6222358;23;20005;-94
2022/03/11 21:34:45;;;;;;;31.70;15.88;;;;;;;;;;6222172;23;20011;-91
2022/03/11 21:37:11;;;;;;;28.63;14.88;;;;;;;;;;6222058;23;20004;-92
2022/03/11 21:39:37;;;;;;;24.48;14.98;;;;;;;;;;6222637;23;20038;-94
2022/03/11 21:42:04;;;;;;;24.63;15.25;;;;;;;;;;6222121;23;20015;-92
2022/03/11 21:44:32;;;;;;;23.70;13.93;;;;;;;;;;6221970;23;20000;-93
2022/03/11 21:46:59;;;;;;;22.67;13.45;;;;;;;;;;6222277;23;20019;-93
2022/03/11 21:49:26;;;;;;;20.35;12.45;;;;;;;;;;6221387;23;20000;-92
2022/03/11 21:51:52;;;;;;;19.98;12.10;;;;;;;;;;6220959;23;20020;-92
2022/03/11 21:54:17;;;;;;;21.15;12.98;;;;;;;;;;6222360;23;20057;-94
2022/03/11 21:56:43;;;;;;;19.73;12.15;;;;;;;;;;6221559;23;20312;-93
2022/03/11 21:59:08;;;;;;;19.75;11.80;;;;;;;;;;6221989;23;20438;-90
2022/03/11 22:01:34;;;;;;;20.35;12.13;;;;;;;;;;6248733;23;20438;-89
2022/03/11 22:04:01;;;;;;;17.60;11.82;;;;;;;;;;6248063;23;20000;-95
2022/03/11 22:06:29;;;;;;;16.23;11.07;;;;;;;;;;6221303;23;20458;-94
2022/03/11 22:08:55;;;;;;;18.55;11.75;;;;;;;;;;6221959;23;20007;-95
2022/03/11 22:11:21;;;;;;;20.10;11.25;;;;;;;;;;6221900;23;20004;-90
2022/03/11 22:13:46;;;;;;;21.52;11.40;;;;;;;;;;6248470;23;19996;-95
2022/03/11 22:16:15;;;;;;;17.50;9.82;;;;;;;;;;6222078;23;20007;-90
2022/03/11 22:18:41;;;;;;;18.13;9.85;;;;;;;;;;6221121;23;20062;-92
2022/03/11 22:21:07;;;;;;;13.30;9.18;;;;;;;;;;6221416;23;20070;-95
2022/03/11 22:23:32;;;;;;;15.80;10.02;;;;;;;;;;6222049;23;20317;-95
2022/03/11 22:25:58;;;;;;;15.73;8.85;;;;;;;;;;6221675;23;20012;-90
2022/03/11 22:28:24;;;;;;;13.80;8.48;;;;;;;;;;6222089;23;20015;-95
2022/03/11 22:30:50;;;;;;;17.02;9.32;;;;;;;;;;6247880;23;20000;-91
2022/03/11 22:33:16;;;;;;;14.52;8.95;;;;;;;;;;6247746;23;20062;-93
2022/03/11 22:35:41;;;;;;;13.93;8.55;;;;;;;;;;6221534;23;20012;-95
2022/03/11 22:38:11;;;;;;;15.98;8.73;;;;;;;;;;6220968;23;20004;-89
2022/03/11 22:40:37;;;;;;;15.23;8.80;;;;;;;;;;6221355;23;20012;-89
2022/03/11 22:43:05;;;;;;;13.95;8.80;;;;;;;;;;6221559;23;20012;-89
2022/03/11 22:45:34;;;;;;;16.23;8.40;;;;;;;;;;6221072;23;20015;-90
2022/03/11 22:48:01;;;;;;;16.20;8.70;;;;;;;;;;6247195;23;20008;-90
2022/03/11 22:50:31;;;;;;;14.32;8.95;;;;;;;;;;6220652;23;20004;-91
2022/03/11 22:53:00;;;;;;;14.52;7.95;;;;;;;;;;6178219;23;20107;-91
2022/03/11 22:55:30;;;;;;;13.13;7.88;;;;;;;;;;6191559;23;20016;-96
2022/03/11 22:57:57;;;;;;;;;;;;;;;;;;6192214;23;20012;-91
2022/03/11 23:00:44;;;;;;;13.05;7.70;;;;;;;;;;6191641;23;20320;-94
2022/03/11 23:03:11;;;;;;;12.20;7.80;;;;;;;;;;6191246;23;20095;-91
2022/03/11 23:05:38;;;;;;;13.70;7.28;;;;;;;;;;6191580;23;20008;-94
2022/03/11 23:10:50;;;;;;;13.63;7.57;;;;;;;;;;6217361;23;20011;-89
2022/03/11 23:13:26;;;;;;;14.07;7.70;;;;;;;;;;6217549;23;20009;-89
2022/03/11 23:15:53;;;;;;;14.32;8.45;;;;;;;;;;6191207;23;20013;-91
2022/03/11 23:18:20;;;;;;;12.20;7.85;;;;;;;;;;6192782;23;20007;-94
2022/03/11 23:20:47;;;;;;;10.07;7.35;;;;;;;;;;6193446;23;20083;-92
2022/03/11 23:23:13;;;;;;;15.82;7.70;;;;;;;;;;6193380;23;20035;-93
2022/03/11 23:25:48;;;;;;;12.95;8.35;;;;;;;;;;6192975;23;20020;-88
2022/03/11 23:28:14;;;;;;;13.82;7.60;;;;;;;;;;6192834;23;20039;-92
2022/03/11 23:30:47;;;;;;;13.45;8.23;;;;;;;;;;6193065;23;20067;-89
2022/03/11 23:33:21;;;;;;;15.07;8.38;;;;;;;;;;6192972;23;20055;-89
2022/03/11 23:35:49;;;;;;;12.73;8.40;;;;;;;;;;6193443;23;20027;-96
2022/03/11 23:38:16;;;;;;;11.75;7.90;;;;;;;;;;6193117;23;20011;-87
2022/03/11 23:40:42;;;;;;;12.60;8.43;;;;;;;;;;6219599;23;20004;-88
2022/03/11 23:43:08;;;;;;;15.50;8.68;;;;;;;;;;6192970;23;20005;-90
2022/03/11 23:45:33;;;;;;;13.25;8.23;;;;;;;;;;6193677;23;20008;-92
